createdAt,value
2019-01-08T00:00:48.144Z,38.70
2019-01-08T00:01:48.095Z,38.90
2019-01-08T00:02:48.093Z,38.51
2019-01-08T00:03:48.692Z,38.60
2019-01-08T00:04:48.085Z,38.60
2019-01-08T00:05:48.044Z,38.60
2019-01-08T00:06:48.680Z,38.60
2019-01-08T00:07:48.030Z,38.81
2019-01-08T00:08:48.021Z,38.81
2019-01-08T00:09:48.030Z,38.81
2019-01-08T00:10:48.689Z,38.81
2019-01-08T00:11:47.978Z,38.90
2019-01-08T00:12:47.977Z,38.81
2019-01-08T00:13:47.954Z,38.90
2019-01-08T00:14:48.012Z,38.81
2019-01-08T00:15:47.939Z,38.60
2019-01-08T00:16:47.925Z,38.60
2019-01-08T00:17:47.942Z,38.81
2019-01-08T00:18:47.936Z,38.70
2019-01-08T00:19:47.943Z,38.81
2019-01-08T00:20:47.882Z,38.81
2019-01-08T00:21:47.916Z,38.81
2019-01-08T00:22:47.875Z,38.40
2019-01-08T00:23:48.723Z,38.90
2019-01-08T00:24:47.900Z,38.81
2019-01-08T00:25:47.836Z,38.81
2019-01-08T00:26:47.831Z,38.81
2019-01-08T00:27:48.678Z,38.60
2019-01-08T00:28:47.795Z,38.90
2019-01-08T00:29:47.810Z,38.90
2019-01-08T00:30:47.773Z,38.60
2019-01-08T00:31:47.758Z,39.01
2019-01-08T00:32:48.687Z,38.60
2019-01-08T00:33:47.740Z,38.60
2019-01-08T00:34:47.761Z,38.81
2019-01-08T00:35:47.713Z,38.90
2019-01-08T00:36:47.709Z,38.90
2019-01-08T00:37:48.706Z,39.01
2019-01-08T00:38:47.690Z,38.60
2019-01-08T00:39:47.689Z,38.60
2019-01-08T00:40:47.657Z,38.70
2019-01-08T00:41:47.658Z,38.81
2019-01-08T00:42:47.644Z,38.60
2019-01-08T00:43:48.189Z,38.60
2019-01-08T00:44:47.643Z,39.01
2019-01-08T00:45:47.603Z,38.81
2019-01-08T00:46:47.601Z,38.60
2019-01-08T00:47:47.580Z,38.70
2019-01-08T00:48:48.184Z,38.70
2019-01-08T00:49:47.694Z,38.70
2019-01-08T00:50:47.546Z,38.81
2019-01-08T00:51:47.551Z,38.60
2019-01-08T00:52:47.524Z,38.70
2019-01-08T00:53:47.516Z,38.60
2019-01-08T00:54:47.520Z,38.81
2019-01-08T00:55:48.183Z,38.70
2019-01-08T00:56:47.522Z,38.81
2019-01-08T00:57:47.490Z,38.81
2019-01-08T00:58:51.704Z,38.60
2019-01-08T00:59:47.469Z,38.81
2019-01-08T01:00:47.446Z,38.60
2019-01-08T01:01:47.469Z,38.60
2019-01-08T01:02:47.423Z,38.51
2019-01-08T01:03:47.411Z,38.70
2019-01-08T01:04:47.419Z,38.60
2019-01-08T01:05:48.195Z,39.01
2019-01-08T01:06:47.382Z,38.60
2019-01-08T01:07:47.365Z,38.81
2019-01-08T01:08:47.358Z,38.40
2019-01-08T01:09:47.396Z,38.70
2019-01-08T01:10:47.326Z,38.60
2019-01-08T01:11:48.182Z,38.60
2019-01-08T01:12:47.342Z,38.60
2019-01-08T01:13:47.331Z,38.60
2019-01-08T01:14:47.694Z,38.40
2019-01-08T01:15:48.233Z,38.60
2019-01-08T01:16:48.187Z,38.70
2019-01-08T01:17:47.276Z,38.60
2019-01-08T01:18:47.262Z,38.70
2019-01-08T01:19:47.246Z,38.60
2019-01-08T01:20:48.194Z,38.60
2019-01-08T01:21:48.193Z,38.60
2019-01-08T01:22:47.210Z,38.40
2019-01-08T01:23:47.212Z,38.62
2019-01-08T01:24:47.204Z,38.70
2019-01-08T01:25:47.164Z,38.70
2019-01-08T01:26:47.688Z,38.40
2019-01-08T01:27:47.143Z,38.40
2019-01-08T01:28:47.138Z,38.60
2019-01-08T01:29:47.150Z,38.60
2019-01-08T01:30:47.126Z,38.42
2019-01-08T01:31:47.100Z,38.60
2019-01-08T01:32:47.682Z,38.40
2019-01-08T01:33:47.084Z,38.60
2019-01-08T01:34:47.105Z,38.51
2019-01-08T01:35:47.681Z,38.40
2019-01-08T01:36:47.065Z,38.62
2019-01-08T01:37:47.068Z,38.60
2019-01-08T01:38:47.078Z,38.62
2019-01-08T01:39:47.705Z,38.53
2019-01-08T01:40:47.211Z,38.60
2019-01-08T01:41:46.995Z,38.40
2019-01-08T01:42:46.975Z,38.53
2019-01-08T01:43:46.964Z,38.51
2019-01-08T01:44:46.951Z,38.51
2019-01-08T01:45:47.224Z,38.51
2019-01-08T01:46:46.969Z,38.42
2019-01-08T01:47:47.681Z,38.53
2019-01-08T01:48:46.919Z,38.40
2019-01-08T01:49:46.895Z,38.31
2019-01-08T01:50:46.904Z,38.31
2019-01-08T01:51:46.908Z,38.40
2019-01-08T01:52:47.704Z,38.31
2019-01-08T01:53:46.864Z,38.32
2019-01-08T01:54:47.738Z,38.51
2019-01-08T01:55:47.214Z,38.51
2019-01-08T01:56:46.829Z,38.31
2019-01-08T01:57:46.827Z,38.31
2019-01-08T01:58:46.811Z,38.40
2019-01-08T01:59:47.695Z,38.31
2019-01-08T02:00:46.803Z,38.31
2019-01-08T02:01:46.773Z,38.31
2019-01-08T02:02:46.769Z,38.32
2019-01-08T02:03:46.770Z,38.31
2019-01-08T02:04:47.689Z,38.42
2019-01-08T02:05:46.761Z,38.31
2019-01-08T02:06:46.737Z,38.31
2019-01-08T02:07:46.715Z,38.31
2019-01-08T02:08:46.700Z,38.32
2019-01-08T02:09:47.202Z,38.22
2019-01-08T02:10:46.702Z,38.22
2019-01-08T02:11:46.707Z,38.90
2019-01-08T02:12:46.642Z,38.31
2019-01-08T02:13:47.255Z,38.62
2019-01-08T02:14:47.191Z,38.32
2019-01-08T02:15:46.623Z,38.40
2019-01-08T02:16:46.628Z,38.90
2019-01-08T02:17:46.596Z,38.82
2019-01-08T02:18:46.587Z,38.62
2019-01-08T02:19:46.609Z,38.60
2019-01-08T02:20:46.585Z,38.31
2019-01-08T02:21:46.748Z,38.31
2019-01-08T02:22:46.542Z,38.92
2019-01-08T02:23:47.215Z,38.81
2019-01-08T02:24:46.552Z,38.70
2019-01-08T02:25:46.523Z,38.72
2019-01-08T02:26:46.721Z,38.82
2019-01-08T02:27:46.498Z,38.81
2019-01-08T02:28:46.469Z,38.82
2019-01-08T02:29:46.473Z,38.82
2019-01-08T02:30:47.235Z,38.60
2019-01-08T02:31:46.521Z,38.92
2019-01-08T02:32:46.467Z,38.72
2019-01-08T02:33:46.453Z,38.60
2019-01-08T02:34:46.404Z,38.62
2019-01-08T02:35:46.391Z,38.82
2019-01-08T02:36:46.485Z,38.42
2019-01-08T02:37:46.379Z,38.62
2019-01-08T02:38:46.367Z,38.62
2019-01-08T02:39:46.347Z,38.82
2019-01-08T02:40:46.392Z,38.82
2019-01-08T02:41:46.615Z,38.53
2019-01-08T02:42:46.335Z,38.72
2019-01-08T02:43:46.316Z,38.42
2019-01-08T02:44:46.364Z,38.62
2019-01-08T02:45:47.205Z,38.62
2019-01-08T02:46:46.459Z,38.62
2019-01-08T02:47:46.269Z,38.53
2019-01-08T02:48:46.261Z,38.62
2019-01-08T02:49:46.245Z,38.53
2019-01-08T02:50:46.265Z,38.72
2019-01-08T02:51:46.276Z,38.40
2019-01-08T02:52:46.204Z,38.53
2019-01-08T02:53:46.198Z,38.62
2019-01-08T02:54:46.246Z,38.53
2019-01-08T02:55:46.688Z,38.62
2019-01-08T02:56:46.188Z,38.62
2019-01-08T02:57:46.166Z,38.72
2019-01-08T02:58:46.152Z,38.62
2019-01-08T02:59:46.159Z,38.72
2019-01-08T03:00:46.146Z,38.62
2019-01-08T03:01:46.137Z,38.53
2019-01-08T03:02:46.096Z,38.72
2019-01-08T03:03:46.082Z,38.72
2019-01-08T03:04:46.084Z,38.72
2019-01-08T03:05:46.060Z,38.53
2019-01-08T03:06:46.102Z,38.51
2019-01-08T03:07:46.043Z,38.62
2019-01-08T03:08:46.034Z,38.53
2019-01-08T03:09:46.021Z,38.53
2019-01-08T03:10:46.007Z,38.72
2019-01-08T03:11:46.723Z,38.53
2019-01-08T03:12:46.197Z,38.42
2019-01-08T03:13:45.982Z,38.53
2019-01-08T03:14:45.968Z,38.53
2019-01-08T03:15:45.945Z,38.53
2019-01-08T03:16:45.939Z,38.62
2019-01-08T03:17:46.222Z,38.32
2019-01-08T03:18:45.935Z,38.82
2019-01-08T03:19:45.909Z,38.72
2019-01-08T03:20:45.897Z,38.72
2019-01-08T03:21:45.891Z,38.62
2019-01-08T03:22:46.211Z,38.72
2019-01-08T03:23:46.689Z,38.53
2019-01-08T03:24:45.848Z,38.53
2019-01-08T03:25:45.841Z,38.62
2019-01-08T03:26:45.826Z,38.62
2019-01-08T03:27:46.214Z,38.53
2019-01-08T03:28:46.717Z,38.62
2019-01-08T03:29:45.811Z,38.53
2019-01-08T03:30:45.817Z,38.53
2019-01-08T03:31:45.786Z,38.62
2019-01-08T03:32:45.817Z,38.72
2019-01-08T03:33:46.713Z,38.62
2019-01-08T03:34:45.768Z,38.42
2019-01-08T03:35:45.751Z,38.62
2019-01-08T03:36:45.719Z,38.62
2019-01-08T03:37:45.756Z,38.53
2019-01-08T03:38:46.703Z,38.62
2019-01-08T03:39:45.689Z,38.53
2019-01-08T03:40:46.216Z,38.62
2019-01-08T03:41:45.669Z,38.62
2019-01-08T03:42:45.675Z,38.62
2019-01-08T03:43:45.744Z,38.62
2019-01-08T03:44:45.634Z,38.53
2019-01-08T03:45:46.194Z,38.53
2019-01-08T03:46:45.636Z,38.82
2019-01-08T03:47:45.749Z,38.62
2019-01-08T03:48:45.613Z,38.53
2019-01-08T03:49:46.194Z,38.42
2019-01-08T03:50:45.580Z,38.42
2019-01-08T03:51:45.558Z,38.42
2019-01-08T03:52:45.706Z,39.12
2019-01-08T03:53:45.587Z,38.53
2019-01-08T03:54:45.526Z,38.53
2019-01-08T03:55:45.511Z,38.82
2019-01-08T03:56:45.499Z,38.53
2019-01-08T03:57:45.509Z,38.72
2019-01-08T03:58:45.498Z,38.72
2019-01-08T03:59:45.467Z,38.42
2019-01-08T04:00:45.465Z,38.72
2019-01-08T04:01:46.195Z,38.42
2019-01-08T04:02:45.704Z,38.62
2019-01-08T04:03:46.201Z,38.42
2019-01-08T04:04:45.409Z,38.53
2019-01-08T04:05:45.405Z,39.03
2019-01-08T04:06:45.390Z,38.22
2019-01-08T04:07:45.376Z,38.53
2019-01-08T04:08:45.701Z,38.72
2019-01-08T04:09:46.218Z,38.92
2019-01-08T04:10:45.345Z,38.42
2019-01-08T04:11:45.349Z,38.53
2019-01-08T04:12:45.325Z,38.82
2019-01-08T04:13:45.327Z,38.22
2019-01-08T04:14:46.249Z,38.82
2019-01-08T04:15:46.191Z,38.82
2019-01-08T04:16:45.275Z,38.82
2019-01-08T04:17:45.270Z,37.92
2019-01-08T04:18:45.274Z,38.92
2019-01-08T04:19:45.256Z,37.92
2019-01-08T04:20:45.259Z,38.42
2019-01-08T04:21:46.211Z,38.92
2019-01-08T04:22:45.225Z,39.03
2019-01-08T04:23:45.216Z,38.12
2019-01-08T04:24:45.199Z,38.92
2019-01-08T04:25:45.699Z,38.82
2019-01-08T04:26:45.700Z,38.12
2019-01-08T04:27:45.158Z,38.22
2019-01-08T04:28:45.167Z,38.12
2019-01-08T04:29:50.333Z,38.92
2019-01-08T04:30:45.133Z,38.12
2019-01-08T04:31:45.119Z,39.03
2019-01-08T04:32:45.106Z,37.92
2019-01-08T04:33:45.102Z,38.92
2019-01-08T04:34:45.080Z,38.42
2019-01-08T04:35:45.076Z,38.12
2019-01-08T04:36:45.081Z,38.12
2019-01-08T04:37:45.067Z,38.92
2019-01-08T04:38:45.204Z,38.02
2019-01-08T04:39:45.051Z,38.12
2019-01-08T04:40:45.065Z,38.12
2019-01-08T04:41:44.998Z,38.12
2019-01-08T04:42:44.998Z,38.02
2019-01-08T04:43:45.009Z,38.12
2019-01-08T04:44:44.972Z,38.02
2019-01-08T04:45:45.703Z,38.22
2019-01-08T04:46:44.950Z,38.12
2019-01-08T04:47:44.933Z,38.14
2019-01-08T04:48:45.209Z,38.12
2019-01-08T04:49:44.922Z,38.02
2019-01-08T04:50:45.692Z,38.02
2019-01-08T04:51:44.889Z,38.22
2019-01-08T04:52:44.920Z,38.32
2019-01-08T04:53:44.894Z,38.42
2019-01-08T04:54:44.873Z,38.02
2019-01-08T04:55:44.860Z,38.12
2019-01-08T04:56:44.835Z,38.42
2019-01-08T04:57:44.823Z,38.12
2019-01-08T04:58:44.833Z,38.02
2019-01-08T04:59:44.810Z,38.22
2019-01-08T05:00:44.788Z,38.22
2019-01-08T05:01:45.709Z,38.42
2019-01-08T05:02:44.775Z,38.42
2019-01-08T05:03:45.242Z,38.22
2019-01-08T05:04:45.692Z,38.42
2019-01-08T05:05:44.773Z,38.42
2019-01-08T05:06:44.724Z,38.42
2019-01-08T05:07:44.711Z,38.22
2019-01-08T05:08:44.715Z,38.12
2019-01-08T05:09:44.690Z,38.42
2019-01-08T05:10:45.206Z,38.22
2019-01-08T05:11:44.685Z,38.32
2019-01-08T05:12:44.657Z,38.32
2019-01-08T05:13:44.664Z,38.53
2019-01-08T05:14:44.636Z,38.32
2019-01-08T05:15:44.623Z,38.04
2019-01-08T05:16:45.202Z,38.32
2019-01-08T05:17:44.611Z,38.64
2019-01-08T05:18:44.612Z,38.04
2019-01-08T05:19:44.585Z,38.34
2019-01-08T05:20:44.572Z,38.64
2019-01-08T05:21:44.575Z,38.04
2019-01-08T05:22:44.601Z,38.02
2019-01-08T05:23:44.563Z,38.32
2019-01-08T05:24:44.521Z,38.94
2019-01-08T05:25:44.534Z,38.94
2019-01-08T05:26:44.521Z,38.92
2019-01-08T05:27:44.516Z,38.94
2019-01-08T05:28:44.737Z,38.94
2019-01-08T05:29:44.469Z,38.04
2019-01-08T05:30:44.462Z,38.22
2019-01-08T05:31:44.453Z,37.94
2019-01-08T05:32:44.436Z,38.94
2019-01-08T05:33:44.451Z,38.94
2019-01-08T05:34:44.428Z,38.64
2019-01-08T05:35:44.400Z,37.94
2019-01-08T05:36:44.424Z,38.64
2019-01-08T05:37:44.378Z,38.04
2019-01-08T05:38:44.707Z,38.14
2019-01-08T05:39:45.198Z,38.82
2019-01-08T05:40:44.351Z,38.34
2019-01-08T05:41:45.848Z,38.44
2019-01-08T05:42:44.335Z,38.14
2019-01-08T05:43:44.331Z,38.84
2019-01-08T05:44:45.234Z,38.94
2019-01-08T05:45:44.310Z,38.64
2019-01-08T05:46:44.286Z,38.74
2019-01-08T05:47:44.279Z,38.24
2019-01-08T05:48:44.289Z,38.64
2019-01-08T05:49:45.206Z,38.64
2019-01-08T05:50:45.198Z,38.64
2019-01-08T05:51:44.292Z,38.34
2019-01-08T05:52:44.211Z,38.44
2019-01-08T05:53:44.234Z,38.24
2019-01-08T05:54:44.228Z,38.34
2019-01-08T05:55:44.184Z,38.34
2019-01-08T05:56:44.729Z,38.34
2019-01-08T05:57:44.191Z,38.64
2019-01-08T05:58:44.183Z,38.34
2019-01-08T05:59:44.141Z,38.34
2019-01-08T06:00:44.141Z,38.84
2019-01-08T06:01:44.713Z,38.04
2019-01-08T06:02:44.155Z,38.64
2019-01-08T06:03:44.127Z,38.04
2019-01-08T06:04:44.084Z,38.44
2019-01-08T06:05:44.694Z,38.44
2019-01-08T06:06:44.065Z,38.84
2019-01-08T06:07:44.062Z,38.32
2019-01-08T06:08:44.092Z,38.62
2019-01-08T06:09:44.039Z,38.24
2019-01-08T06:10:44.012Z,38.64
2019-01-08T06:11:43.999Z,38.02
2019-01-08T06:12:44.002Z,38.22
2019-01-08T06:13:44.767Z,38.34
2019-01-08T06:14:44.045Z,38.34
2019-01-08T06:15:43.961Z,38.24
2019-01-08T06:16:43.951Z,38.24
2019-01-08T06:17:43.945Z,38.44
2019-01-08T06:18:43.940Z,38.24
2019-01-08T06:19:43.942Z,38.12
2019-01-08T06:20:43.906Z,38.32
2019-01-08T06:21:43.887Z,38.04
2019-01-08T06:22:43.886Z,38.54
2019-01-08T06:23:44.697Z,38.24
2019-01-08T06:24:44.206Z,38.04
2019-01-08T06:25:43.854Z,38.14
2019-01-08T06:26:43.875Z,38.14
2019-01-08T06:27:43.828Z,38.04
2019-01-08T06:28:44.713Z,38.14
2019-01-08T06:29:44.212Z,38.24
2019-01-08T06:30:43.799Z,38.12
2019-01-08T06:31:43.787Z,38.12
2019-01-08T06:32:43.766Z,38.64
2019-01-08T06:33:43.766Z,40.85
2019-01-08T06:34:44.257Z,40.65
2019-01-08T06:35:43.736Z,41.45
2019-01-08T06:36:43.734Z,40.75
2019-01-08T06:37:43.720Z,41.45
2019-01-08T06:38:43.700Z,41.75
2019-01-08T06:39:43.722Z,40.85
2019-01-08T06:40:43.739Z,41.03
2019-01-08T06:41:44.397Z,41.43
2019-01-08T06:42:43.667Z,40.93
2019-01-08T06:43:43.646Z,41.83
2019-01-08T06:44:43.647Z,40.73
2019-01-08T06:45:43.643Z,41.33
2019-01-08T06:46:43.617Z,41.53
2019-01-08T06:47:43.623Z,41.74
2019-01-08T06:48:43.589Z,41.13
2019-01-08T06:49:43.593Z,40.53
2019-01-08T06:50:43.566Z,40.53
2019-01-08T06:51:43.558Z,40.83
2019-01-08T06:52:44.208Z,40.61
2019-01-08T06:53:43.540Z,40.73
2019-01-08T06:54:43.712Z,40.63
2019-01-08T06:55:43.557Z,40.51
2019-01-08T06:56:44.206Z,41.33
2019-01-08T06:57:43.495Z,41.43
2019-01-08T06:58:43.493Z,41.61
2019-01-08T06:59:43.712Z,41.21
2019-01-08T07:00:43.455Z,41.11
2019-01-08T07:01:43.443Z,41.11
2019-01-08T07:02:43.444Z,40.91
2019-01-08T07:03:43.425Z,40.83
2019-01-08T07:04:43.437Z,40.91
2019-01-08T07:05:43.405Z,41.01
2019-01-08T07:06:43.387Z,40.81
2019-01-08T07:07:43.381Z,41.41
2019-01-08T07:08:43.401Z,40.81
2019-01-08T07:09:43.726Z,41.51
2019-01-08T07:10:43.346Z,41.51
2019-01-08T07:11:43.344Z,42.02
2019-01-08T07:12:43.390Z,42.02
2019-01-08T07:13:43.317Z,42.21
2019-01-08T07:14:43.315Z,41.31
2019-01-08T07:15:43.305Z,41.61
2019-01-08T07:16:43.289Z,41.41
2019-01-08T07:17:43.311Z,41.82
2019-01-08T07:18:43.263Z,41.82
2019-01-08T07:19:43.745Z,41.29
2019-01-08T07:20:43.254Z,42.02
2019-01-08T07:21:43.248Z,41.61
2019-01-08T07:22:43.240Z,42.11
2019-01-08T07:23:43.223Z,41.82
2019-01-08T07:24:43.225Z,41.69
2019-01-08T07:25:43.189Z,41.71
2019-01-08T07:26:43.201Z,42.11
2019-01-08T07:27:43.207Z,42.02
2019-01-08T07:28:43.154Z,41.69
2019-01-08T07:29:43.165Z,41.61
2019-01-08T07:30:43.139Z,41.29
2019-01-08T07:31:43.119Z,41.29
2019-01-08T07:32:43.706Z,42.40
2019-01-08T07:33:43.731Z,41.89
2019-01-08T07:34:43.227Z,42.19
2019-01-08T07:35:43.704Z,42.10
2019-01-08T07:36:43.709Z,42.40
2019-01-08T07:37:43.074Z,42.10
2019-01-08T07:38:43.701Z,42.19
2019-01-08T07:39:43.049Z,41.69
2019-01-08T07:40:43.015Z,41.99
2019-01-08T07:41:43.006Z,42.40
2019-01-08T07:42:43.003Z,42.30
2019-01-08T07:43:42.996Z,42.49
2019-01-08T07:44:42.990Z,42.30
2019-01-08T07:45:42.960Z,41.89
2019-01-08T07:46:42.955Z,41.49
2019-01-08T07:47:42.942Z,41.89
2019-01-08T07:48:43.701Z,41.79
2019-01-08T07:49:43.230Z,41.29
2019-01-08T07:50:42.960Z,40.69
2019-01-08T07:51:42.928Z,40.79
2019-01-08T07:52:42.894Z,40.79
2019-01-08T07:53:43.714Z,40.79
2019-01-08T07:54:42.888Z,40.89
2019-01-08T07:55:42.859Z,40.79
2019-01-08T07:56:43.706Z,40.79
2019-01-08T07:57:42.840Z,41.39
2019-01-08T07:58:42.915Z,41.49
2019-01-08T07:59:42.852Z,41.49
2019-01-08T08:00:49.941Z,42.19
2019-01-08T08:01:42.802Z,41.69
2019-01-08T08:02:42.789Z,41.79
2019-01-08T08:03:42.784Z,41.79
2019-01-08T08:04:47.549Z,42.10
2019-01-08T08:05:42.744Z,41.99
2019-01-08T08:06:42.729Z,42.10
2019-01-08T08:07:42.734Z,41.99
2019-01-08T08:08:42.710Z,42.60
2019-01-08T08:09:42.781Z,42.40
2019-01-08T08:10:42.685Z,42.40
2019-01-08T08:11:42.682Z,42.30
2019-01-08T08:12:42.759Z,42.49
2019-01-08T08:13:42.662Z,42.40
2019-01-08T08:14:43.238Z,42.40
2019-01-08T08:15:42.643Z,42.30
2019-01-08T08:16:42.620Z,41.69
2019-01-08T08:17:43.249Z,42.40
2019-01-08T08:18:42.600Z,42.49
2019-01-08T08:19:43.212Z,42.10
2019-01-08T08:20:42.785Z,42.27
2019-01-08T08:21:42.560Z,42.40
2019-01-08T08:22:43.205Z,42.47
2019-01-08T08:23:42.542Z,42.30
2019-01-08T08:24:43.200Z,42.49
2019-01-08T08:25:42.551Z,42.27
2019-01-08T08:26:42.508Z,42.47
2019-01-08T08:27:43.205Z,42.18
2019-01-08T08:28:42.487Z,42.57
2019-01-08T08:29:42.495Z,42.18
2019-01-08T08:30:42.477Z,42.40
2019-01-08T08:31:42.455Z,42.57
2019-01-08T08:32:43.212Z,42.18
2019-01-08T08:33:42.431Z,42.77
2019-01-08T08:34:43.210Z,41.97
2019-01-08T08:35:42.425Z,42.47
2019-01-08T08:36:43.204Z,42.38
2019-01-08T08:37:43.204Z,42.57
2019-01-08T08:38:42.375Z,42.68
2019-01-08T08:39:42.363Z,42.47
2019-01-08T08:40:42.364Z,43.08
2019-01-08T08:41:42.357Z,42.57
2019-01-08T08:42:43.202Z,43.27
2019-01-08T08:43:42.318Z,43.88
2019-01-08T08:44:42.313Z,43.68
2019-01-08T08:45:42.315Z,43.58
2019-01-08T08:46:43.205Z,43.77
2019-01-08T08:47:42.279Z,43.38
2019-01-08T08:48:42.264Z,43.68
2019-01-08T08:49:43.223Z,44.08
2019-01-08T08:50:42.257Z,44.18
2019-01-08T08:51:42.230Z,44.38
2019-01-08T08:52:42.224Z,44.38
2019-01-08T08:53:42.293Z,44.68
2019-01-08T08:54:42.197Z,43.58
2019-01-08T08:55:42.240Z,44.18
2019-01-08T08:56:42.858Z,44.28
2019-01-08T08:57:42.187Z,44.48
2019-01-08T08:58:42.721Z,44.48
2019-01-08T08:59:42.148Z,44.68
2019-01-08T09:00:42.241Z,44.38
2019-01-08T09:01:42.892Z,44.48
2019-01-08T09:02:42.124Z,44.38
2019-01-08T09:03:42.121Z,44.46
2019-01-08T09:04:42.740Z,44.66
2019-01-08T09:05:42.754Z,44.46
2019-01-08T09:06:42.069Z,44.76
2019-01-08T09:07:42.057Z,44.46
2019-01-08T09:08:42.709Z,44.06
2019-01-08T09:09:42.042Z,44.56
2019-01-08T09:10:42.231Z,44.46
2019-01-08T09:11:42.863Z,44.66
2019-01-08T09:12:42.011Z,44.46
2019-01-08T09:13:41.990Z,44.86
2019-01-08T09:14:41.981Z,43.85
2019-01-08T09:15:42.726Z,43.55
2019-01-08T09:16:42.702Z,43.66
2019-01-08T09:17:42.712Z,43.76
2019-01-08T09:18:41.936Z,43.76
2019-01-08T09:19:41.920Z,43.96
2019-01-08T09:20:41.937Z,43.46
2019-01-08T09:21:41.969Z,43.96
2019-01-08T09:22:42.711Z,44.56
2019-01-08T09:23:41.878Z,44.66
2019-01-08T09:24:41.868Z,44.46
2019-01-08T09:25:41.883Z,43.85
2019-01-08T09:26:41.855Z,43.76
2019-01-08T09:27:41.863Z,44.35
2019-01-08T09:28:42.724Z,43.76
2019-01-08T09:29:41.834Z,43.76
2019-01-08T09:30:41.824Z,43.76
2019-01-08T09:31:42.710Z,44.16
2019-01-08T09:32:41.780Z,43.85
2019-01-08T09:33:41.776Z,44.16
2019-01-08T09:34:41.760Z,44.56
2019-01-08T09:35:42.785Z,44.66
2019-01-08T09:36:41.738Z,44.35
2019-01-08T09:37:42.734Z,44.76
2019-01-08T09:38:42.724Z,44.58
2019-01-08T09:39:41.712Z,43.55
2019-01-08T09:40:41.706Z,43.76
2019-01-08T09:41:42.227Z,43.76
2019-01-08T09:42:43.707Z,43.55
2019-01-08T09:43:42.266Z,43.76
2019-01-08T09:44:41.650Z,43.76
2019-01-08T09:45:41.648Z,44.76
2019-01-08T09:46:42.246Z,44.46
2019-01-08T09:47:42.222Z,43.96
2019-01-08T09:48:41.616Z,44.06
2019-01-08T09:49:41.606Z,44.16
2019-01-08T09:50:41.795Z,44.46
2019-01-08T09:51:41.582Z,44.66
2019-01-08T09:52:41.558Z,44.66
2019-01-08T09:53:41.547Z,44.66
2019-01-08T09:54:41.540Z,44.96
2019-01-08T09:55:41.728Z,45.46
2019-01-08T09:56:41.520Z,45.56
2019-01-08T09:57:41.569Z,45.26
2019-01-08T09:58:41.499Z,45.36
2019-01-08T09:59:41.481Z,45.36
2019-01-08T10:00:41.490Z,45.86
2019-01-08T10:01:41.464Z,45.76
2019-01-08T10:02:41.750Z,45.56
2019-01-08T10:03:42.215Z,46.06
2019-01-08T10:04:42.308Z,45.56
2019-01-08T10:05:41.459Z,46.46
2019-01-08T10:06:41.408Z,46.36
2019-01-08T10:07:42.214Z,46.16
2019-01-08T10:08:41.413Z,46.56
2019-01-08T10:09:42.264Z,46.46
2019-01-08T10:10:42.240Z,46.46
2019-01-08T10:11:41.357Z,46.36
2019-01-08T10:12:42.221Z,46.36
2019-01-08T10:13:42.209Z,46.66
2019-01-08T10:14:41.356Z,47.36
2019-01-08T10:15:41.362Z,46.44
2019-01-08T10:16:41.462Z,46.74
2019-01-08T10:17:41.285Z,46.64
2019-01-08T10:18:42.791Z,46.74
2019-01-08T10:19:42.243Z,46.54
2019-01-08T10:20:42.246Z,46.54
2019-01-08T10:21:41.255Z,46.64
2019-01-08T10:22:42.243Z,46.74
2019-01-08T10:23:42.228Z,46.84
2019-01-08T10:24:41.711Z,46.56
2019-01-08T10:25:41.195Z,46.74
2019-01-08T10:26:41.738Z,46.74
2019-01-08T10:27:41.724Z,47.04
2019-01-08T10:28:41.176Z,46.84
2019-01-08T10:29:41.734Z,46.94
2019-01-08T10:30:41.173Z,46.94
2019-01-08T10:31:41.257Z,47.14
2019-01-08T10:32:41.710Z,46.64
2019-01-08T10:33:41.164Z,46.74
2019-01-08T10:34:41.708Z,46.64
2019-01-08T10:35:41.098Z,46.24
2019-01-08T10:36:41.734Z,46.64
2019-01-08T10:37:41.745Z,46.44
2019-01-08T10:38:41.059Z,46.72
2019-01-08T10:39:41.707Z,46.81
2019-01-08T10:40:41.713Z,46.12
2019-01-08T10:41:41.034Z,46.22
2019-01-08T10:42:41.120Z,46.22
2019-01-08T10:43:41.000Z,46.19
2019-01-08T10:44:40.989Z,46.50
2019-01-08T10:45:41.031Z,46.17
2019-01-08T10:46:40.993Z,46.27
2019-01-08T10:47:41.710Z,45.37
2019-01-08T10:48:40.943Z,45.25
2019-01-08T10:49:41.815Z,45.45
2019-01-08T10:50:40.931Z,44.75
2019-01-08T10:51:40.935Z,45.65
2019-01-08T10:52:41.744Z,44.83
2019-01-08T10:53:41.744Z,44.93
2019-01-08T10:54:41.712Z,43.93
2019-01-08T10:55:40.863Z,44.11
2019-01-08T10:56:41.742Z,44.31
2019-01-08T10:57:40.857Z,44.41
2019-01-08T10:58:41.715Z,44.59
2019-01-08T10:59:40.821Z,43.69
2019-01-08T11:00:40.855Z,43.69
2019-01-08T11:01:41.768Z,43.49
2019-01-08T11:02:40.791Z,44.19
2019-01-08T11:03:40.779Z,43.99
2019-01-08T11:04:40.839Z,44.29
2019-01-08T11:05:40.783Z,43.27
2019-01-08T11:06:40.760Z,43.47
2019-01-08T11:07:41.830Z,43.77
2019-01-08T11:08:40.720Z,42.95
2019-01-08T11:09:41.216Z,43.15
2019-01-08T11:10:40.705Z,42.95
2019-01-08T11:11:40.717Z,42.55
2019-01-08T11:12:41.217Z,42.35
2019-01-08T11:13:40.683Z,42.15
2019-01-08T11:14:41.220Z,42.35
2019-01-08T11:15:40.651Z,42.15
2019-01-08T11:16:41.233Z,41.55
2019-01-08T11:17:40.628Z,42.25
2019-01-08T11:18:41.214Z,42.23
2019-01-08T11:19:41.219Z,41.85
2019-01-08T11:20:41.220Z,42.25
2019-01-08T11:21:40.729Z,41.93
2019-01-08T11:22:40.680Z,43.03
2019-01-08T11:23:40.584Z,42.83
2019-01-08T11:24:40.553Z,42.53
2019-01-08T11:25:40.567Z,41.83
2019-01-08T11:26:41.241Z,42.73
2019-01-08T11:27:41.211Z,41.71
2019-01-08T11:28:43.130Z,41.82
2019-01-08T11:29:40.533Z,41.91
2019-01-08T11:30:41.221Z,41.82
2019-01-08T11:31:48.630Z,41.83
2019-01-08T11:32:40.475Z,42.31
2019-01-08T11:33:40.608Z,42.21
2019-01-08T11:34:41.221Z,42.61
2019-01-08T11:35:42.358Z,41.82
2019-01-08T11:36:40.429Z,41.71
2019-01-08T11:37:41.233Z,41.61
2019-01-08T11:38:40.391Z,41.61
2019-01-08T11:39:40.406Z,42.11
2019-01-08T11:40:41.225Z,42.19
2019-01-08T11:41:40.720Z,42.21
2019-01-08T11:42:40.356Z,42.09
2019-01-08T11:43:40.337Z,42.49
2019-01-08T11:44:40.398Z,41.60
2019-01-08T11:45:40.318Z,41.99
2019-01-08T11:46:40.318Z,42.11
2019-01-08T11:47:41.295Z,42.19
2019-01-08T11:48:40.280Z,42.09
2019-01-08T11:49:40.276Z,41.89
2019-01-08T11:50:41.228Z,42.29
2019-01-08T11:51:40.290Z,42.19
2019-01-08T11:52:41.217Z,41.20
2019-01-08T11:53:41.286Z,41.69
2019-01-08T11:54:41.255Z,41.79
2019-01-08T11:55:40.260Z,41.69
2019-01-08T11:56:40.742Z,41.69
2019-01-08T11:57:40.193Z,41.00
2019-01-08T11:58:40.764Z,40.50
2019-01-08T11:59:40.202Z,40.60
2019-01-08T12:00:40.777Z,41.00
2019-01-08T12:01:40.207Z,40.60
2019-01-08T12:02:47.588Z,40.70
2019-01-08T12:03:40.115Z,40.70
2019-01-08T12:04:40.827Z,41.09
2019-01-08T12:05:40.104Z,41.09
2019-01-08T12:06:40.102Z,41.30
2019-01-08T12:07:40.078Z,41.09
2019-01-08T12:08:40.069Z,40.70
2019-01-08T12:09:40.716Z,40.60
2019-01-08T12:10:40.037Z,40.60
2019-01-08T12:11:40.245Z,40.60
2019-01-08T12:12:40.716Z,40.90
2019-01-08T12:13:40.712Z,40.40
2019-01-08T12:14:40.722Z,40.40
2019-01-08T12:15:39.990Z,40.50
2019-01-08T12:16:40.260Z,40.50
2019-01-08T12:17:39.963Z,40.40
2019-01-08T12:18:40.721Z,40.40
2019-01-08T12:19:39.941Z,40.40
2019-01-08T12:20:40.797Z,40.40
2019-01-08T12:21:39.973Z,40.40
2019-01-08T12:22:40.961Z,41.00
2019-01-08T12:23:40.724Z,41.60
2019-01-08T12:24:39.906Z,40.90
2019-01-08T12:25:39.891Z,41.58
2019-01-08T12:26:39.898Z,40.58
2019-01-08T12:27:40.240Z,41.28
2019-01-08T12:28:39.852Z,40.48
2019-01-08T12:29:40.748Z,40.38
2019-01-08T12:30:39.839Z,40.38
2019-01-08T12:31:39.836Z,40.38
2019-01-08T12:32:40.799Z,40.38
2019-01-08T12:33:39.786Z,40.38
2019-01-08T12:34:40.715Z,41.08
2019-01-08T12:35:39.780Z,40.28
2019-01-08T12:36:40.850Z,40.38
2019-01-08T12:37:39.757Z,40.48
2019-01-08T12:38:39.782Z,40.28
2019-01-08T12:39:39.755Z,40.48
2019-01-08T12:40:39.749Z,40.36
2019-01-08T12:41:39.699Z,40.36
2019-01-08T12:42:39.725Z,40.68
2019-01-08T12:43:40.239Z,41.08
2019-01-08T12:44:40.245Z,40.88
2019-01-08T12:45:39.654Z,40.48
2019-01-08T12:46:40.215Z,40.28
2019-01-08T12:47:39.655Z,40.68
2019-01-08T12:48:40.262Z,40.38
2019-01-08T12:49:39.611Z,40.38
2019-01-08T12:50:40.239Z,40.58
2019-01-08T12:51:40.220Z,41.58
2019-01-08T12:52:39.597Z,41.08